Latest Weather Observations for Richmond

IDQ60801

Issued at 8:02 am EST Saturday 6 February 2016 (issued every 30 minutes, with the page automatically refreshed every 10 minutes)

About weather observations | Map of weather stations | Latest weather observations for QLD | Other Formats
Station Details ID: 030161 Name: RICHMOND AIRPORT Lat: -20.70 Lon: 143.12 Height: 206.3 m
Data from the previous 72 hours. | See also: Recent months at Richmond
Date/Time
EST
Temp
°C
App
Temp
°C
Dew
Point
Rel
Hum
%
Delta-T
°C
Wind Press
QNH
hPa
Press
MSL
hPa
Rain
since 9 am
mm
Dir
 
Spd
km/h
Gust
km/h
Spd
kts
Gust
kts
06/08:00am 25.9 28.0 20.9 74 3.3 S 11 17 6 9 1005.5 1004.0 0.2
06/07:30am 24.4 28.5 20.7 80 2.4 CALM 0 0 0 0 1005.1 1003.5 0.2
06/07:00am 22.8 25.3 20.3 86 1.6 SSW 7 7 4 4 1004.7 1003.1 0.2
06/06:30am 22.2 24.8 20.1 88 1.4 WNW 6 7 3 4 1004.0 1002.5 0.2
06/06:00am 22.2 24.9 20.3 89 1.2 WNW 6 7 3 4 1003.5 1002.0 0.2
06/05:30am 22.5 25.7 20.4 88 1.4 WNW 4 6 2 3 1003.3 1001.8 0.2
06/05:00am 22.8 25.5 20.7 88 1.4 S 7 9 4 5 1002.9 1001.4 0.2
06/04:30am 22.7 25.4 20.6 88 1.4 S 7 7 4 4 1002.7 1001.2 0.2
06/04:00am 23.0 25.4 20.9 88 1.4 SE 9 13 5 7 1002.4 1000.9 0.2
06/03:30am 23.3 26.0 21.4 89 1.3 SE 9 9 5 5 1002.3 1000.8 0.2
06/03:00am 23.0 27.1 20.7 87 1.5 CALM 0 0 0 0 1002.6 1001.1 0.2
06/02:30am 23.3 26.2 20.6 85 1.8 SE 6 6 3 3 1003.0 1001.5 0.2
06/02:00am 23.4 25.7 20.7 85 1.8 SSE 9 9 5 5 1003.0 1001.5 0.2
06/01:30am 23.9 26.7 20.8 83 2.0 SSE 7 11 4 6 1003.3 1001.8 0.2
06/01:00am 24.5 29.1 21.8 85 1.8 CALM 0 0 0 0 1003.6 1002.1 0.2
06/12:30am 24.4 28.8 21.3 83 2.1 CALM 0 0 0 0 1003.9 1002.4 0.2
06/12:00am 26.0 29.5 22.1 79 2.6 ENE 7 9 4 5 1004.2 1002.7 0.2
 
Date/Time
EST
Temp
°C
App
Temp
°C
Dew
Point
Rel
Hum
%
Delta-T
°C
Wind Press
QNH
hPa
Press
MSL
hPa
Rain
since 9 am
mm
Dir
 
Spd
km/h
Gust
km/h
Spd
kts
Gust
kts
05/11:30pm 26.0 29.3 21.9 78 2.8 ENE 7 9 4 5 1004.7 1003.1 0.2
05/11:00pm 26.4 29.6 21.6 75 3.2 ENE 7 9 4 5 1004.7 1003.1 0.2
05/10:30pm 26.8 30.0 21.6 73 3.5 ENE 7 9 4 5 1005.1 1003.5 0.2
05/10:00pm 27.0 30.0 21.3 71 3.8 E 7 9 4 5 1005.0 1003.4 0.2
05/09:30pm 27.5 30.3 20.8 67 4.5 ENE 7 9 4 5 1004.8 1003.2 0.2
05/09:00pm 27.8 30.4 20.4 64 4.9 ENE 7 9 4 5 1004.6 1003.0 0.2
05/08:30pm 28.2 30.2 20.0 61 5.4 E 9 11 5 6 1004.5 1002.9 0.2
05/08:00pm 29.1 31.0 19.7 57 6.2 E 9 11 5 6 1004.1 1002.6 0.2
05/07:30pm 30.0 31.6 19.1 52 7.1 SSE 9 11 5 6 1003.7 1002.2 0.2
05/07:00pm 31.6 31.4 18.6 46 8.5 SSE 17 22 9 12 1003.2 1001.7 0.2
05/06:30pm 32.2 32.5 18.8 45 8.8 SSE 15 22 8 12 1002.7 1001.2 0.2
05/06:00pm 31.8 31.1 18.7 45 8.6 SSE 20 26 11 14 1002.4 1000.9 0.2
05/05:30pm 32.0 32.0 18.9 45 8.6 SSE 17 26 9 14 1002.3 1000.8 0.2
05/05:00pm 32.4 32.6 19.3 46 8.7 SSE 17 22 9 12 1002.2 1000.7 0.2
05/04:30pm 31.9 31.8 19.5 47 8.2 SSE 19 24 10 13 1002.3 1000.8 0.2
05/04:00pm 31.9 31.8 19.5 47 8.2 S 19 28 10 15 1002.6 1001.1 0.2
05/03:30pm 31.6 32.6 20.2 50 7.6 SSE 15 19 8 10 1002.9 1001.4 0.2
05/03:00pm 30.8 31.3 20.1 53 7.1 S 17 24 9 13 1003.2 1001.7 0.2
05/02:30pm 31.0 31.1 20.0 52 7.3 S 19 26 10 14 1003.4 1001.9 0.2
05/02:00pm 31.3 32.5 20.6 53 7.2 S 15 22 8 12 1003.8 1002.3 0.2
05/01:30pm 31.2 31.4 20.2 52 7.3 S 19 26 10 14 1004.2 1002.7 0.2
05/01:00pm 31.1 31.1 20.1 52 7.3 SSW 20 26 11 14 1004.6 1003.0 0.2
05/12:30pm 31.2 33.2 20.8 54 7.0 SSW 11 17 6 9 1004.9 1003.3 0.2
05/12:00pm 30.2 31.5 20.2 55 6.7 SW 13 17 7 9 1005.3 1003.8 0.2
05/11:30am 29.6 31.8 20.5 58 6.1 SSW 9 15 5 8 1005.9 1004.4 0.2
05/11:00am 30.3 32.6 21.4 59 6.0 SSE 11 20 6 11 1006.2 1004.7 0.2
05/10:30am 28.4 29.8 20.4 62 5.3 S 13 15 7 8 1006.3 1004.8 0.2
05/10:00am 28.5 29.9 21.0 64 5.0 ESE 15 22 8 12 1006.4 1004.9 0.2
05/09:30am 27.3 28.8 21.3 69 4.0 ESE 15 20 8 11 1006.4 1004.9 0.0
05/09:00am 26.9 28.5 21.4 72 3.7 SE 15 19 8 10 1006.1 1004.6 3.0
05/08:30am 25.8 27.6 21.9 79 2.6 SSE 15 20 8 11 1006.1 1004.6 3.0
05/08:00am 24.8 27.6 22.3 86 1.7 SSE 11 15 6 8 1005.7 1004.2 3.0
05/07:30am 24.1 27.0 21.8 87 1.5 SSW 9 15 5 8 1005.4 1003.9 3.0
05/07:00am 23.5 27.1 22.1 92 0.9 S 6 7 3 4 1004.9 1003.3 3.0
05/06:30am 23.3 26.5 21.7 91 1.1 S 7 9 4 5 1004.2 1002.7 3.0
05/06:00am 23.4 26.6 21.7 90 1.1 SSE 7 9 4 5 1003.9 1002.4 3.0
05/05:30am 23.6 26.8 21.7 89 1.3 SSE 7 7 4 4 1003.7 1002.2 3.0
05/05:00am 23.4 26.7 21.5 89 1.3 SSE 6 7 3 4 1003.6 1002.1 3.0
05/04:30am 23.4 26.6 21.7 90 1.1 SSE 7 9 4 5 1003.5 1002.0 3.0
05/04:00am 23.5 26.2 21.4 88 1.4 S 9 9 5 5 1003.5 1002.0 3.0
05/03:30am 23.7 26.4 21.4 87 1.5 S 9 9 5 5 1003.7 1002.2 3.0
05/03:00am 23.8 26.2 21.5 87 1.5 SSW 11 13 6 7 1003.9 1002.4 3.0
05/02:30am 23.9 26.6 21.4 86 1.7 S 9 11 5 6 1004.2 1002.7 3.0
05/02:00am 24.0 26.7 21.3 85 1.8 S 9 11 5 6 1004.5 1002.9 3.0
05/01:30am 24.1 27.3 21.6 86 1.7 ESE 7 9 4 5 1004.7 1003.1 3.0
05/01:00am 24.5 27.4 21.0 81 2.3 E 7 9 4 5 1004.9 1003.3 3.0
05/12:30am 24.3 27.4 21.4 84 1.9 E 7 9 4 5 1005.5 1004.0 3.0
05/12:00am 24.4 27.4 21.3 83 2.1 ESE 7 9 4 5 1005.9 1004.4 3.0
 
Date/Time
EST
Temp
°C
App
Temp
°C
Dew
Point
Rel
Hum
%
Delta-T
°C
Wind Press
QNH
hPa
Press
MSL
hPa
Rain
since 9 am
mm
Dir
 
Spd
km/h
Gust
km/h
Spd
kts
Gust
kts
04/11:30pm 24.3 27.0 21.4 84 1.9 SE 9 11 5 6 1006.3 1004.8 3.0
04/11:00pm 24.3 27.0 21.4 84 1.9 SSE 9 11 5 6 1006.5 1005.0 3.0
04/10:30pm 24.5 25.5 21.0 81 2.3 S 17 20 9 11 1006.7 1005.2 3.0
04/10:00pm 24.6 25.9 21.7 84 1.9 SSW 17 20 9 11 1006.6 1005.1 3.0
04/09:30pm 25.1 26.2 22.0 83 2.1 SSW 19 22 10 12 1006.5 1005.0 3.0
04/09:00pm 24.8 27.6 23.0 90 1.2 SE 13 17 7 9 1006.2 1004.7 3.0
04/08:30pm 24.4 26.4 23.0 92 1.0 SSW 17 20 9 11 1006.4 1004.9 2.2
04/08:00pm 25.2 26.5 23.3 89 1.3 SW 22 30 12 16 1006.1 1004.6 0.8
04/07:30pm 27.2 30.0 23.7 81 2.4 SW 15 19 8 10 1005.4 1003.9 0.4
04/07:00pm 27.2 30.2 23.4 80 2.6 SW 13 17 7 9 1004.7 1003.1 0.4
04/06:30pm 27.5 29.6 23.7 80 2.6 SW 19 24 10 13 1004.6 1003.0 0.4
04/06:00pm 27.7 30.1 24.3 82 2.4 SW 19 28 10 15 1004.2 1002.7 0.4
04/05:30pm 26.8 30.8 25.0 90 1.3 SW 13 15 7 8 1004.1 1002.6 0.4
04/05:00pm 27.2 29.6 24.3 84 2.0 SW 19 30 10 16 1003.7 1002.2 0.2
04/04:30pm 29.1 32.0 23.8 73 3.7 W 15 19 8 10 1003.8 1002.3 0.0
04/04:00pm 29.0 31.2 23.9 74 3.6 WSW 19 24 10 13 1003.8 1002.3 0.0
04/03:30pm 28.1 29.3 23.9 78 2.9 WSW 24 30 13 16 1003.7 1002.2 0.0
04/03:00pm 28.6 30.2 23.3 73 3.7 WNW 20 26 11 14 1004.0 1002.5 0.0
04/02:30pm 28.8 30.4 23.2 71 3.9 WNW 20 26 11 14 1004.5 1002.9 0.0
04/02:00pm 29.1 31.0 23.5 72 3.9 WNW 19 24 10 13 1004.8 1003.2 0.0
04/01:30pm 29.1 31.7 24.0 74 3.6 WNW 17 22 9 12 1005.1 1003.5 0.0
04/01:00pm 28.9 32.0 24.2 76 3.3 W 15 20 8 11 1005.4 1003.9 0.0
04/12:30pm 28.4 31.3 24.4 79 2.8 W 17 20 9 11 1005.8 1004.3 0.0
04/12:00pm 28.1 32.0 24.9 83 2.3 W 13 19 7 10 1006.0 1004.5 0.0
04/11:30am 27.7 30.7 24.7 84 2.1 NW 17 20 9 11 1006.3 1004.8 0.0
04/11:00am 26.7 29.7 24.7 89 1.4 WNW 17 22 9 12 1006.3 1004.8 0.0
04/10:30am 27.0 30.9 24.8 88 1.5 NW 13 17 7 9 1006.5 1005.0 0.0
04/10:00am 26.7 31.0 24.9 90 1.3 NNW 11 13 6 7 1006.6 1005.1 0.0
04/09:30am 26.1 29.6 24.9 93 0.8 NW 15 19 8 10 1006.8 1005.3 0.0
04/09:00am 26.4 31.3 25.2 93 0.8 N 9 13 5 7 1007.0 1005.5 1.8
04/08:30am 26.0 30.6 24.8 93 0.8 N 9 11 5 6 1006.8 1005.3 1.8
04/08:00am 25.7 30.6 24.7 94 0.7 NNE 7 9 4 5 1007.0 1005.5 1.8
04/07:30am 25.4 31.5 24.5 95 0.6 CALM 0 0 0 0 1006.7 1005.2 1.8
04/07:00am 25.2 31.2 24.2 94 0.7 CALM 0 0 0 0 1006.3 1004.8 1.6
04/06:30am 25.2 31.2 24.3 95 0.6 CALM 0 0 0 0 1006.2 1004.7 1.6
04/06:00am 25.1 31.1 24.2 95 0.6 CALM 0 0 0 0 1005.7 1004.2 1.6
04/05:30am 25.1 29.9 24.2 95 0.6 NNE 6 9 3 5 1005.5 1004.0 1.2
04/05:00am 24.9 29.0 24.0 95 0.6 NE 9 11 5 6 1005.2 1003.7 0.4
04/04:30am 24.9 28.6 23.9 94 0.7 N 11 13 6 7 1004.2 1002.7 0.4
04/04:00am 25.0 27.6 24.0 94 0.7 NNE 17 22 9 12 1005.0 1003.4 0.2
04/03:30am 25.9 27.2 24.1 90 1.2 N 24 32 13 17 1005.7 1004.2 0.0
04/03:00am 27.0 29.9 23.9 83 2.2 N 15 20 8 11 1005.4 1003.9 0.0
04/02:30am 26.9 31.0 24.0 84 2.0 NNE 9 11 5 6 1004.8 1003.2 0.0
04/02:00am 26.8 31.3 23.7 83 2.1 WNW 6 7 3 4 1005.1 1003.5 0.0
04/01:30am 27.0 31.2 24.1 84 2.0 WNW 9 9 5 5 1005.7 1004.2 0.0
04/01:00am 27.2 31.4 24.1 83 2.2 NW 9 11 5 6 1006.2 1004.7 0.0
04/12:30am 27.1 30.9 24.0 83 2.2 WNW 11 13 6 7 1006.1 1004.6 0.0
04/12:00am 27.4 31.4 23.8 81 2.5 WNW 9 11 5 6 1006.9 1005.4 0.0
 
Date/Time
EST
Temp
°C
App
Temp
°C
Dew
Point
Rel
Hum
%
Delta-T
°C
Wind Press
QNH
hPa
Press
MSL
hPa
Rain
since 9 am
mm
Dir
 
Spd
km/h
Gust
km/h
Spd
kts
Gust
kts
03/11:30pm 27.5 30.7 23.7 80 2.6 WNW 13 17 7 9 1007.1 1005.6 0.0
03/11:00pm 27.7 30.5 23.7 79 2.8 WNW 15 20 8 11 1007.5 1006.0 0.0
03/10:30pm 28.4 30.2 23.3 74 3.5 WNW 19 24 10 13 1007.5 1006.0 0.0
03/10:00pm 28.9 30.4 23.1 71 4.0 NW 20 28 11 15 1007.2 1005.7 0.0
03/09:30pm 29.3 31.2 23.7 72 3.9 WNW 20 26 11 14 1007.2 1005.7 0.0
03/09:00pm 29.8 31.1 24.0 71 4.1 WNW 24 30 13 16 1007.1 1005.6 0.0
03/08:30pm 30.2 30.9 23.6 67 4.6 NW 26 37 14 20 1006.8 1005.3 0.0
03/08:00pm 30.3 30.7 23.7 68 4.6 WNW 28 37 15 20 1006.4 1004.9 0.0
03/07:30pm 30.2 30.8 24.1 70 4.3 WNW 28 35 15 19 1006.0 1004.5 0.0
03/07:00pm 30.5 31.2 23.7 67 4.7 NW 26 33 14 18 1004.9 1003.3 0.0
03/06:30pm 30.8 31.8 22.9 62 5.5 WNW 22 28 12 15 1004.6 1003.0 0.0
03/06:00pm 31.0 32.1 23.6 64 5.2 WNW 24 30 13 16 1004.5 1002.9 0.0
03/05:30pm 30.8 31.3 24.0 67 4.8 WSW 28 35 15 19 1004.0 1002.5 0.0
03/05:02pm 33.5 31.9 21.6 49 8.1 NW 32 50 17 27 1003.3 1001.8 0.0
03/05:00pm 34.8 33.2 20.7 43 9.6 NW 30 39 16 21 1003.3 1001.8 0.0
03/04:30pm 36.3 36.3 21.7 42 10.1 NW 24 37 13 20 1003.2 1001.7 0.0
03/04:00pm 35.9 35.7 21.3 42 10.0 NW 24 33 13 18 1003.4 1001.9 0.0
03/03:30pm 35.6 36.3 21.5 44 9.7 NW 20 30 11 16 1003.6 1002.1 0.0
03/03:00pm 35.2 35.1 21.5 45 9.4 NW 24 33 13 18 1004.0 1002.5 0.0
03/02:30pm 35.0 35.2 21.3 45 9.4 NNW 22 33 12 18 1004.2 1002.7 0.0
03/02:00pm 35.1 34.0 21.0 43 9.6 NW 28 37 15 20 1005.0 1003.4 0.0
03/01:30pm 35.2 34.1 21.1 43 9.6 NW 28 39 15 21 1005.5 1004.0 0.0
03/01:00pm 34.6 34.0 21.3 46 9.1 NW 26 39 14 21 1005.7 1004.2 0.0
03/12:30pm 34.2 33.6 21.3 47 8.8 NNW 26 37 14 20 1006.2 1004.7 0.0
03/12:00pm 33.6 34.0 22.4 52 7.7 NNW 24 32 13 17 1007.1 1005.6 0.0
03/11:30am 32.8 33.5 22.9 56 6.9 NW 24 41 13 22 1007.8 1006.3 0.0
03/11:00am 32.4 33.9 23.1 58 6.5 NNW 20 28 11 15 1008.0 1006.5 0.0
03/10:30am 31.6 32.7 23.7 63 5.5 NW 24 35 13 19 1007.8 1006.3 0.0
03/10:00am 30.6 31.1 23.3 65 5.1 NNW 26 37 14 20 1008.0 1006.5 0.0
03/09:30am 30.6 32.3 24.0 68 4.6 NNW 22 30 12 16 1008.2 1006.7 0.0
03/09:00am 29.3 29.7 23.7 72 3.9 NNW 28 35 15 19 1008.3 1006.8 1.6
03/08:30am 28.7 30.7 24.0 76 3.3 NW 20 30 11 16 1008.5 1007.0 1.6

Other Formats:

Comma delimited format used in spreadsheet applications
http://www.bom.gov.au/fwo/IDQ60801/IDQ60801.94341.axf

JavaScript Object Notation format (JSON) in row-major order
http://www.bom.gov.au/fwo/IDQ60801/IDQ60801.94341.json